sensor_id;sensor_type;location;lat;lon;timestamp;pressure;altitude;pressure_sealevel;temperature;humidity
68399;BME280;56258;52.196;13.868;2023-02-03T00:01:43;101782.84;;;19.70;32.90
68399;BME280;56258;52.196;13.868;2023-02-03T00:04:10;101779.28;;;19.69;33.15
68399;BME280;56258;52.196;13.868;2023-02-03T00:06:37;101773.41;;;19.74;33.13
68399;BME280;56258;52.196;13.868;2023-02-03T00:09:03;101766.66;;;19.70;33.33
68399;BME280;56258;52.196;13.868;2023-02-03T00:11:31;101775.41;;;19.72;33.33
68399;BME280;56258;52.196;13.868;2023-02-03T00:13:57;101768.50;;;19.69;33.71
68399;BME280;56258;52.196;13.868;2023-02-03T00:16:24;101756.16;;;19.67;33.54
68399;BME280;56258;52.196;13.868;2023-02-03T00:18:51;101748.38;;;19.64;33.54
68399;BME280;56258;52.196;13.868;2023-02-03T00:21:17;101742.81;;;19.65;33.42
68399;BME280;56258;52.196;13.868;2023-02-03T00:23:44;101740.13;;;19.65;33.28
68399;BME280;56258;52.196;13.868;2023-02-03T00:26:13;101738.09;;;19.67;33.38
68399;BME280;56258;52.196;13.868;2023-02-03T00:28:40;101734.72;;;19.65;33.42
68399;BME280;56258;52.196;13.868;2023-02-03T00:31:23;101727.19;;;19.69;33.50
68399;BME280;56258;52.196;13.868;2023-02-03T00:33:55;101722.75;;;19.68;33.51
68399;BME280;56258;52.196;13.868;2023-02-03T00:36:22;101710.16;;;19.68;33.14
68399;BME280;56258;52.196;13.868;2023-02-03T00:38:49;101691.19;;;19.60;33.28
68399;BME280;56258;52.196;13.868;2023-02-03T00:41:17;101696.66;;;19.68;33.05
68399;BME280;56258;52.196;13.868;2023-02-03T00:43:44;101694.47;;;19.72;33.51
68399;BME280;56258;52.196;13.868;2023-02-03T00:46:11;101677.63;;;19.70;33.34
68399;BME280;56258;52.196;13.868;2023-02-03T00:48:38;101677.13;;;19.74;32.93
68399;BME280;56258;52.196;13.868;2023-02-03T00:51:05;101661.03;;;19.65;33.08
68399;BME280;56258;52.196;13.868;2023-02-03T00:53:32;101658.56;;;19.71;33.12
68399;BME280;56258;52.196;13.868;2023-02-03T00:55:59;101660.41;;;19.71;33.27
68399;BME280;56258;52.196;13.868;2023-02-03T00:58:25;101662.09;;;19.72;32.78
68399;BME280;56258;52.196;13.868;2023-02-03T01:00:54;101649.31;;;19.74;33.17
68399;BME280;56258;52.196;13.868;2023-02-03T01:03:21;101640.19;;;19.75;33.04
68399;BME280;56258;52.196;13.868;2023-02-03T01:05:48;101628.00;;;19.63;32.86
68399;BME280;56258;52.196;13.868;2023-02-03T01:08:15;101630.19;;;19.67;33.26
68399;BME280;56258;52.196;13.868;2023-02-03T01:10:41;101639.13;;;19.68;33.07
68399;BME280;56258;52.196;13.868;2023-02-03T01:13:08;101643.56;;;19.69;33.33
68399;BME280;56258;52.196;13.868;2023-02-03T01:15:35;101639.47;;;19.65;33.09
68399;BME280;56258;52.196;13.868;2023-02-03T01:18:01;101647.94;;;19.70;33.33
68399;BME280;56258;52.196;13.868;2023-02-03T01:20:28;101640.31;;;19.65;33.04
68399;BME280;56258;52.196;13.868;2023-02-03T01:22:54;101630.53;;;19.64;33.49
68399;BME280;56258;52.196;13.868;2023-02-03T01:25:21;101629.69;;;19.64;33.08
68399;BME280;56258;52.196;13.868;2023-02-03T01:27:48;101618.88;;;19.64;33.48
68399;BME280;56258;52.196;13.868;2023-02-03T01:30:15;101614.66;;;19.61;33.19
68399;BME280;56258;52.196;13.868;2023-02-03T01:32:41;101610.28;;;19.60;33.45
68399;BME280;56258;52.196;13.868;2023-02-03T01:35:08;101608.09;;;19.64;32.79
68399;BME280;56258;52.196;13.868;2023-02-03T01:37:35;101610.28;;;19.60;33.22
68399;BME280;56258;52.196;13.868;2023-02-03T01:40:02;101612.66;;;19.63;33.35
68399;BME280;56258;52.196;13.868;2023-02-03T01:42:32;101594.09;;;19.60;33.05
68399;BME280;56258;52.196;13.868;2023-02-03T01:44:59;101591.06;;;19.63;33.16
68399;BME280;56258;52.196;13.868;2023-02-03T01:47:56;101588.38;;;19.63;33.27
68399;BME280;56258;52.196;13.868;2023-02-03T01:50:35;101582.97;;;19.63;32.86
68399;BME280;56258;52.196;13.868;2023-02-03T01:53:06;101581.28;;;19.62;33.16
68399;BME280;56258;52.196;13.868;2023-02-03T01:55:37;101577.06;;;19.60;33.42
68399;BME280;56258;52.196;13.868;2023-02-03T01:58:09;101579.59;;;19.61;33.22
68399;BME280;56258;52.196;13.868;2023-02-03T02:00:38;101563.41;;;19.61;32.93
68399;BME280;56258;52.196;13.868;2023-02-03T02:03:07;101557.69;;;19.64;33.29
68399;BME280;56258;52.196;13.868;2023-02-03T02:06:16;101547.22;;;19.61;33.13
68399;BME280;56258;52.196;13.868;2023-02-03T02:08:44;101541.00;;;19.61;33.28
68399;BME280;56258;52.196;13.868;2023-02-03T02:11:12;101539.50;;;19.66;33.34
68399;BME280;56258;52.196;13.868;2023-02-03T02:13:39;101526.34;;;19.63;33.23
68399;BME280;56258;52.196;13.868;2023-02-03T02:22:15;101504.06;;;19.61;33.50
68399;BME280;56258;52.196;13.868;2023-02-03T02:30:34;101475.41;;;19.60;33.10
68399;BME280;56258;52.196;13.868;2023-02-03T02:33:32;101471.88;;;19.60;33.43
68399;BME280;56258;52.196;13.868;2023-02-03T02:36:25;101459.91;;;19.62;33.26
68399;BME280;56258;52.196;13.868;2023-02-03T02:41:52;101444.06;;;19.67;33.23
68399;BME280;56258;52.196;13.868;2023-02-03T02:44:22;101431.59;;;19.66;33.22
68399;BME280;56258;52.196;13.868;2023-02-03T02:46:59;101416.25;;;19.67;32.96
68399;BME280;56258;52.196;13.868;2023-02-03T02:49:32;101421.63;;;19.67;32.85
68399;BME280;56258;52.196;13.868;2023-02-03T02:52:03;101416.25;;;19.67;32.86
68399;BME280;56258;52.196;13.868;2023-02-03T02:54:32;101401.25;;;19.64;32.83
68399;BME280;56258;52.196;13.868;2023-02-03T02:57:04;101394.84;;;19.65;33.08
68399;BME280;56258;52.196;13.868;2023-02-03T02:59:31;101377.97;;;19.63;32.71
68399;BME280;56258;52.196;13.868;2023-02-03T03:01:58;101384.88;;;19.66;33.36
68399;BME280;56258;52.196;13.868;2023-02-03T03:04:27;101389.44;;;19.65;33.21
68399;BME280;56258;52.196;13.868;2023-02-03T03:07:00;101376.28;;;19.62;33.10
68399;BME280;56258;52.196;13.868;2023-02-03T03:09:34;101377.97;;;19.63;33.17
68399;BME280;56258;52.196;13.868;2023-02-03T03:12:10;101370.22;;;19.60;32.99
68399;BME280;56258;52.196;13.868;2023-02-03T03:14:42;101369.88;;;19.63;32.87
68399;BME280;56258;52.196;13.868;2023-02-03T03:17:14;101350.50;;;19.60;33.08
68399;BME280;56258;52.196;13.868;2023-02-03T03:19:48;101346.28;;;19.57;33.15
68399;BME280;56258;52.196;13.868;2023-02-03T03:22:16;101335.50;;;19.65;33.24
68399;BME280;56258;52.196;13.868;2023-02-03T03:24:51;101328.41;;;19.89;32.87
68399;BME280;56258;52.196;13.868;2023-02-03T03:27:22;101321.66;;;20.01;32.89
68399;BME280;56258;52.196;13.868;2023-02-03T03:29:55;101322.00;;;20.14;32.62
68399;BME280;56258;52.196;13.868;2023-02-03T03:32:23;101319.09;;;20.32;32.64
68399;BME280;56258;52.196;13.868;2023-02-03T03:34:51;101309.13;;;20.49;32.52
68399;BME280;56258;52.196;13.868;2023-02-03T03:48:11;101250.63;;;21.03;31.84
68399;BME280;56258;52.196;13.868;2023-02-03T03:50:44;101242.84;;;21.08;31.83
68399;BME280;56258;52.196;13.868;2023-02-03T03:53:12;101235.88;;;21.14;31.84
68399;BME280;56258;52.196;13.868;2023-02-03T03:55:43;101236.34;;;21.17;31.67
68399;BME280;56258;52.196;13.868;2023-02-03T03:58:17;101241.75;;;21.25;30.89
68399;BME280;56258;52.196;13.868;2023-02-03T04:00:47;101227.00;;;21.28;31.94
68399;BME280;56258;52.196;13.868;2023-02-03T04:03:22;101224.97;;;21.30;31.87
68399;BME280;56258;52.196;13.868;2023-02-03T04:05:50;101217.53;;;21.32;31.81
68399;BME280;56258;52.196;13.868;2023-02-03T04:08:17;101212.78;;;21.34;31.35
68399;BME280;56258;52.196;13.868;2023-02-03T04:10:43;101207.47;;;21.41;31.72
68399;BME280;56258;52.196;13.868;2023-02-03T04:13:11;101208.44;;;21.48;31.48
68399;BME280;56258;52.196;13.868;2023-02-03T04:15:38;101214.13;;;21.53;31.46
68399;BME280;56258;52.196;13.868;2023-02-03T04:18:05;101214.22;;;21.45;31.48
68399;BME280;56258;52.196;13.868;2023-02-03T04:20:32;101195.75;;;21.48;31.26
68399;BME280;56258;52.196;13.868;2023-02-03T04:22:59;101184.66;;;21.43;31.47
68399;BME280;56258;52.196;13.868;2023-02-03T04:25:26;101185.00;;;21.40;31.56
68399;BME280;56258;52.196;13.868;2023-02-03T04:27:53;101194.97;;;21.40;32.17
68399;BME280;56258;52.196;13.868;2023-02-03T04:30:20;101181.56;;;21.46;31.69
68399;BME280;56258;52.196;13.868;2023-02-03T04:32:47;101175.31;;;21.46;31.89
68399;BME280;56258;52.196;13.868;2023-02-03T04:35:14;101165.16;;;21.48;31.92
68399;BME280;56258;52.196;13.868;2023-02-03T04:37:41;101145.75;;;21.44;31.58
68399;BME280;56258;52.196;13.868;2023-02-03T04:40:09;101149.56;;;21.50;31.54
68399;BME280;56258;52.196;13.868;2023-02-03T04:42:36;101140.09;;;21.69;31.68
68399;BME280;56258;52.196;13.868;2023-02-03T04:45:05;101148.47;;;21.59;31.59
68399;BME280;56258;52.196;13.868;2023-02-03T04:47:33;101143.41;;;21.41;31.93
68399;BME280;56258;52.196;13.868;2023-02-03T04:50:00;101135.97;;;21.20;31.88
68399;BME280;56258;52.196;13.868;2023-02-03T04:52:27;101129.19;;;21.02;32.56
68399;BME280;56258;52.196;13.868;2023-02-03T04:54:54;101105.00;;;20.85;32.54
68399;BME280;56258;52.196;13.868;2023-02-03T04:57:20;101117.25;;;20.73;32.97
68399;BME280;56258;52.196;13.868;2023-02-03T04:59:47;101109.03;;;20.58;32.75
68399;BME280;56258;52.196;13.868;2023-02-03T05:02:14;101096.09;;;20.54;33.27
68399;BME280;56258;52.196;13.868;2023-02-03T05:04:40;101086.19;;;20.38;33.06
68399;BME280;56258;52.196;13.868;2023-02-03T05:07:08;101083.00;;;20.34;33.35
68399;BME280;56258;52.196;13.868;2023-02-03T05:09:35;101075.53;;;20.36;33.03
68399;BME280;56258;52.196;13.868;2023-02-03T05:12:01;101070.00;;;20.38;32.76
68399;BME280;56258;52.196;13.868;2023-02-03T05:14:28;101055.34;;;20.32;32.92
68399;BME280;56258;52.196;13.868;2023-02-03T05:16:54;101071.00;;;20.37;33.02
68399;BME280;56258;52.196;13.868;2023-02-03T05:19:21;101066.59;;;20.36;33.06
68399;BME280;56258;52.196;13.868;2023-02-03T05:21:48;101068.00;;;20.32;32.70
68399;BME280;56258;52.196;13.868;2023-02-03T05:24:14;101056.72;;;20.28;32.57
68399;BME280;56258;52.196;13.868;2023-02-03T05:26:41;101045.72;;;20.30;33.00
68399;BME280;56258;52.196;13.868;2023-02-03T05:29:08;101050.81;;;20.25;32.66
68399;BME280;56258;52.196;13.868;2023-02-03T05:31:37;101060.78;;;20.24;32.81
68399;BME280;56258;52.196;13.868;2023-02-03T05:34:03;101056.06;;;20.26;32.68
68399;BME280;56258;52.196;13.868;2023-02-03T05:36:30;101059.94;;;20.24;32.71
68399;BME280;56258;52.196;13.868;2023-02-03T05:38:57;101043.63;;;20.17;33.09
68399;BME280;56258;52.196;13.868;2023-02-03T05:41:24;101040.38;;;20.22;33.04
68399;BME280;56258;52.196;13.868;2023-02-03T05:44:09;101037.84;;;20.20;32.70
68399;BME280;56258;52.196;13.868;2023-02-03T05:46:36;101030.13;;;20.17;33.07
68399;BME280;56258;52.196;13.868;2023-02-03T05:49:02;101037.69;;;20.22;33.21
68399;BME280;56258;52.196;13.868;2023-02-03T05:51:29;101030.13;;;20.17;33.04
68399;BME280;56258;52.196;13.868;2023-02-03T05:53:56;101031.81;;;20.18;33.18
68399;BME280;56258;52.196;13.868;2023-02-03T05:56:22;101027.09;;;20.12;33.04
68399;BME280;56258;52.196;13.868;2023-02-03T05:58:49;101028.44;;;20.16;32.94
68399;BME280;56258;52.196;13.868;2023-02-03T06:01:19;101025.41;;;20.11;33.05
68399;BME280;56258;52.196;13.868;2023-02-03T06:03:46;101017.97;;;20.13;32.80
68399;BME280;56258;52.196;13.868;2023-02-03T06:06:14;101011.09;;;20.10;33.37
68399;BME280;56258;52.196;13.868;2023-02-03T06:08:41;100993.44;;;20.00;32.73
68399;BME280;56258;52.196;13.868;2023-02-03T06:11:09;101004.19;;;20.08;33.35
68399;BME280;56258;52.196;13.868;2023-02-03T06:13:36;100999.81;;;20.07;32.90
68399;BME280;56258;52.196;13.868;2023-02-03T06:16:03;100997.13;;;20.07;32.64
68399;BME280;56258;52.196;13.868;2023-02-03T06:18:30;100993.75;;;20.05;32.84
68399;BME280;56258;52.196;13.868;2023-02-03T06:20:57;100975.19;;;20.02;33.08
68399;BME280;56258;52.196;13.868;2023-02-03T06:23:23;100976.72;;;20.04;32.69
68399;BME280;56258;52.196;13.868;2023-02-03T06:25:50;100965.09;;;20.04;33.15
68399;BME280;56258;52.196;13.868;2023-02-03T06:28:17;100958.53;;;19.98;32.99
68399;BME280;56258;52.196;13.868;2023-02-03T06:30:44;100946.25;;;19.96;33.49
68399;BME280;56258;52.196;13.868;2023-02-03T06:33:10;100939.13;;;20.03;33.22
68399;BME280;56258;52.196;13.868;2023-02-03T06:35:37;100944.19;;;19.98;33.52
68399;BME280;56258;52.196;13.868;2023-02-03T06:38:04;100932.38;;;19.99;33.65
68399;BME280;56258;52.196;13.868;2023-02-03T06:40:30;100925.63;;;20.03;33.68
68399;BME280;56258;52.196;13.868;2023-02-03T06:42:57;100937.19;;;20.11;33.61
68399;BME280;56258;52.196;13.868;2023-02-03T06:45:24;100934.16;;;20.15;33.39
68399;BME280;56258;52.196;13.868;2023-02-03T06:47:51;100932.63;;;20.12;33.64
68399;BME280;56258;52.196;13.868;2023-02-03T06:50:18;100933.66;;;20.11;33.72
68399;BME280;56258;52.196;13.868;2023-02-03T06:52:44;100950.34;;;20.15;33.24
68399;BME280;56258;52.196;13.868;2023-02-03T06:55:11;100942.78;;;20.10;33.78
68399;BME280;56258;52.196;13.868;2023-02-03T06:57:45;100929.63;;;20.07;33.48
68399;BME280;56258;52.196;13.868;2023-02-03T07:00:14;100927.66;;;20.01;33.59
68399;BME280;56258;52.196;13.868;2023-02-03T07:02:45;100928.47;;;20.01;33.97
68399;BME280;56258;52.196;13.868;2023-02-03T07:05:12;100914.16;;;20.01;33.50
68399;BME280;56258;52.196;13.868;2023-02-03T07:07:38;100898.97;;;20.00;33.79
68399;BME280;56258;52.196;13.868;2023-02-03T07:10:06;100906.25;;;19.99;33.41
68399;BME280;56258;52.196;13.868;2023-02-03T07:12:32;100899.81;;;20.00;33.75
68399;BME280;56258;52.196;13.868;2023-02-03T07:14:59;100905.03;;;20.02;33.40
68399;BME280;56258;52.196;13.868;2023-02-03T07:17:26;100892.56;;;20.01;33.75
68399;BME280;56258;52.196;13.868;2023-02-03T07:19:52;100891.53;;;20.02;33.84
68399;BME280;56258;52.196;13.868;2023-02-03T07:22:19;100886.97;;;20.02;33.62
68399;BME280;56258;52.196;13.868;2023-02-03T07:24:46;100882.78;;;20.00;33.98
68399;BME280;56258;52.196;13.868;2023-02-03T07:27:12;100874.50;;;20.01;33.85
68399;BME280;56258;52.196;13.868;2023-02-03T07:29:39;100871.16;;;19.99;33.41
68399;BME280;56258;52.196;13.868;2023-02-03T07:32:05;100857.66;;;19.99;33.28
68399;BME280;56258;52.196;13.868;2023-02-03T07:34:32;100850.78;;;19.97;33.25
68399;BME280;56258;52.196;13.868;2023-02-03T07:36:59;100844.53;;;19.96;33.80
68399;BME280;56258;52.196;13.868;2023-02-03T07:39:26;100850.78;;;19.97;33.33
68399;BME280;56258;52.196;13.868;2023-02-03T07:41:52;100850.50;;;19.92;33.63
68399;BME280;56258;52.196;13.868;2023-02-03T07:44:19;100837.72;;;19.86;33.74
68399;BME280;56258;52.196;13.868;2023-02-03T07:46:46;100835.28;;;19.91;33.31
68399;BME280;56258;52.196;13.868;2023-02-03T07:49:13;100825.19;;;19.93;33.29
68399;BME280;56258;52.196;13.868;2023-02-03T07:51:40;100813.06;;;19.89;33.68
68399;BME280;56258;52.196;13.868;2023-02-03T07:54:06;100800.00;;;19.77;34.03
68399;BME280;56258;52.196;13.868;2023-02-03T07:56:33;100804.50;;;19.85;33.58
68399;BME280;56258;52.196;13.868;2023-02-03T07:59:00;100811.38;;;19.88;33.63
68399;BME280;56258;52.196;13.868;2023-02-03T08:01:27;100800.22;;;19.91;33.57
68399;BME280;56258;52.196;13.868;2023-02-03T08:03:53;100802.63;;;19.86;33.34
68399;BME280;56258;52.196;13.868;2023-02-03T08:06:21;100787.09;;;19.88;33.59
68399;BME280;56258;52.196;13.868;2023-02-03T08:08:47;100785.88;;;19.90;33.60
68399;BME280;56258;52.196;13.868;2023-02-03T08:11:14;100775.00;;;19.84;33.33
68399;BME280;56258;52.196;13.868;2023-02-03T08:13:41;100759.28;;;19.87;33.72
68399;BME280;56258;52.196;13.868;2023-02-03T08:16:07;100763.00;;;19.86;33.41
68399;BME280;56258;52.196;13.868;2023-02-03T08:18:34;100762.81;;;19.88;33.55
68399;BME280;56258;52.196;13.868;2023-02-03T08:21:01;100750.41;;;19.78;33.73
68399;BME280;56258;52.196;13.868;2023-02-03T08:23:29;100756.78;;;19.86;33.29
68399;BME280;56258;52.196;13.868;2023-02-03T08:25:58;100747.66;;;19.87;33.65
68399;BME280;56258;52.196;13.868;2023-02-03T08:28:25;100743.84;;;19.81;33.60
68399;BME280;56258;52.196;13.868;2023-02-03T08:30:51;100735.91;;;19.79;33.28
68399;BME280;56258;52.196;13.868;2023-02-03T08:33:18;100746.81;;;19.86;33.91
68399;BME280;56258;52.196;13.868;2023-02-03T08:35:47;100731.94;;;19.90;33.42
68399;BME280;56258;52.196;13.868;2023-02-03T08:38:14;100723.69;;;19.92;33.44
68399;BME280;56258;52.196;13.868;2023-02-03T08:40:41;100715.75;;;19.90;33.56
68399;BME280;56258;52.196;13.868;2023-02-03T08:43:08;100711.19;;;19.91;33.38
68399;BME280;56258;52.196;13.868;2023-02-03T08:45:34;100714.44;;;19.86;34.09
68399;BME280;56258;52.196;13.868;2023-02-03T08:48:01;100708.22;;;19.86;33.58
68399;BME280;56258;52.196;13.868;2023-02-03T08:50:28;100715.94;;;19.89;33.71
68399;BME280;56258;52.196;13.868;2023-02-03T08:52:55;100713.59;;;19.86;33.70
68399;BME280;56258;52.196;13.868;2023-02-03T08:55:22;100706.91;;;19.81;33.78
68399;BME280;56258;52.196;13.868;2023-02-03T08:57:48;100690.03;;;19.79;33.49
68399;BME280;56258;52.196;13.868;2023-02-03T09:00:15;100704.22;;;19.81;33.64
68399;BME280;56258;52.196;13.868;2023-02-03T09:02:42;100693.03;;;19.85;33.45
68399;BME280;56258;52.196;13.868;2023-02-03T09:05:09;100694.44;;;19.80;33.67
68399;BME280;56258;52.196;13.868;2023-02-03T09:07:36;100679.09;;;19.81;34.08
68399;BME280;56258;52.196;13.868;2023-02-03T09:10:02;100673.69;;;19.81;33.77
68399;BME280;56258;52.196;13.868;2023-02-03T09:12:29;100674.53;;;19.81;33.49
68399;BME280;56258;52.196;13.868;2023-02-03T09:14:56;100657.03;;;19.77;33.68
68399;BME280;56258;52.196;13.868;2023-02-03T09:17:22;100657.31;;;19.83;34.02
68399;BME280;56258;52.196;13.868;2023-02-03T09:19:49;100653.41;;;19.85;33.79
68399;BME280;56258;52.196;13.868;2023-02-03T09:22:16;100640.19;;;19.75;33.68
68399;BME280;56258;52.196;13.868;2023-02-03T09:24:42;100633.41;;;19.79;33.58
68399;BME280;56258;52.196;13.868;2023-02-03T09:27:09;100647.00;;;19.86;33.62
68399;BME280;56258;52.196;13.868;2023-02-03T09:29:36;100636.00;;;19.88;33.70
68399;BME280;56258;52.196;13.868;2023-02-03T09:32:03;100619.00;;;19.87;33.52
68399;BME280;56258;52.196;13.868;2023-02-03T09:34:34;100606.72;;;19.85;33.41
68399;BME280;56258;52.196;13.868;2023-02-03T09:37:00;100609.69;;;19.90;33.43
68399;BME280;56258;52.196;13.868;2023-02-03T09:39:27;100614.16;;;19.83;33.53
68399;BME280;56258;52.196;13.868;2023-02-03T09:44:29;100616.47;;;19.86;33.91
68399;BME280;56258;52.196;13.868;2023-02-03T09:47:02;100615.66;;;19.85;33.46
68399;BME280;56258;52.196;13.868;2023-02-03T09:49:46;100611.91;;;19.86;33.96
68399;BME280;56258;52.196;13.868;2023-02-03T09:52:20;100591.94;;;19.80;33.65
68399;BME280;56258;52.196;13.868;2023-02-03T09:55:04;100591.56;;;19.84;33.69
68399;BME280;56258;52.196;13.868;2023-02-03T09:57:39;100596.94;;;19.84;33.80
68399;BME280;56258;52.196;13.868;2023-02-03T10:00:35;100588.47;;;19.87;33.64
68399;BME280;56258;52.196;13.868;2023-02-03T10:11:46;100566.63;;;19.81;33.53
68399;BME280;56258;52.196;13.868;2023-02-03T10:14:39;100569.22;;;19.90;33.73
68399;BME280;56258;52.196;13.868;2023-02-03T10:20:02;100544.59;;;19.93;34.06
68399;BME280;56258;52.196;13.868;2023-02-03T10:22:43;100535.34;;;19.87;34.05
68399;BME280;56258;52.196;13.868;2023-02-03T10:25:39;100539.53;;;19.90;34.01
68399;BME280;56258;52.196;13.868;2023-02-03T10:28:30;100519.75;;;19.83;33.92
68399;BME280;56258;52.196;13.868;2023-02-03T10:31:00;100521.03;;;19.87;34.10
68399;BME280;56258;52.196;13.868;2023-02-03T10:33:30;100515.00;;;19.85;34.10
68399;BME280;56258;52.196;13.868;2023-02-03T10:36:20;100500.28;;;19.87;33.97
68399;BME280;56258;52.196;13.868;2023-02-03T10:41:18;100481.97;;;19.83;33.77
68399;BME280;56258;52.196;13.868;2023-02-03T10:43:46;100488.28;;;19.90;33.89
68399;BME280;56258;52.196;13.868;2023-02-03T10:46:29;100474.97;;;19.88;33.95
68399;BME280;56258;52.196;13.868;2023-02-03T10:48:58;100482.81;;;19.83;34.14
68399;BME280;56258;52.196;13.868;2023-02-03T10:51:35;100483.06;;;19.88;33.95
68399;BME280;56258;52.196;13.868;2023-02-03T10:54:03;100486.16;;;19.85;33.94
68399;BME280;56258;52.196;13.868;2023-02-03T10:56:37;100467.47;;;19.84;33.91
68399;BME280;56258;52.196;13.868;2023-02-03T10:59:05;100473.06;;;19.82;33.93
68399;BME280;56258;52.196;13.868;2023-02-03T11:01:44;100485.78;;;19.88;33.87
68399;BME280;56258;52.196;13.868;2023-02-03T11:04:27;100478.72;;;19.87;34.11
68399;BME280;56258;52.196;13.868;2023-02-03T11:07:03;100469.59;;;19.88;34.20
68399;BME280;56258;52.196;13.868;2023-02-03T11:09:40;100469.03;;;19.93;33.66
68399;BME280;56258;52.196;13.868;2023-02-03T11:12:15;100449.75;;;19.96;33.74
68399;BME280;56258;52.196;13.868;2023-02-03T11:14:46;100469.59;;;19.88;33.80
68399;BME280;56258;52.196;13.868;2023-02-03T11:17:22;100461.03;;;19.85;34.00
68399;BME280;56258;52.196;13.868;2023-02-03T11:19:50;100490.34;;;19.88;34.34
68399;BME280;56258;52.196;13.868;2023-02-03T11:22:44;100558.63;;;19.88;33.71
68399;BME280;56258;52.196;13.868;2023-02-03T11:25:23;100592.19;;;19.86;33.88
68399;BME280;56258;52.196;13.868;2023-02-03T11:27:54;100573.31;;;19.86;33.93
68399;BME280;56258;52.196;13.868;2023-02-03T11:30:26;100571.56;;;19.93;33.97
68399;BME280;56258;52.196;13.868;2023-02-03T11:32:56;100573.31;;;19.86;33.93
68399;BME280;56258;52.196;13.868;2023-02-03T11:35:27;100562.63;;;19.92;33.64
68399;BME280;56258;52.196;13.868;2023-02-03T11:37:57;100553.03;;;19.90;34.19
68399;BME280;56258;52.196;13.868;2023-02-03T11:40:26;100555.63;;;19.98;33.78
68399;BME280;56258;52.196;13.868;2023-02-03T11:45:29;100567.69;;;20.31;33.02
68399;BME280;56258;52.196;13.868;2023-02-03T11:48:20;100549.38;;;20.27;33.24
68399;BME280;56258;52.196;13.868;2023-02-03T11:51:08;100558.97;;;20.15;33.46
68399;BME280;56258;52.196;13.868;2023-02-03T11:54:00;100563.50;;;20.14;33.76
68399;BME280;56258;52.196;13.868;2023-02-03T12:02:50;100558.22;;;20.06;33.43
68399;BME280;56258;52.196;13.868;2023-02-03T12:13:48;100585.28;;;20.13;33.93
68399;BME280;56258;52.196;13.868;2023-02-03T12:19:40;100575.38;;;20.34;33.43
68399;BME280;56258;52.196;13.868;2023-02-03T12:22:20;100588.88;;;20.34;33.13
68399;BME280;56258;52.196;13.868;2023-02-03T12:30:43;100570.41;;;20.17;33.63
68399;BME280;56258;52.196;13.868;2023-02-03T12:33:23;100583.88;;;20.31;33.64
68399;BME280;56258;52.196;13.868;2023-02-03T12:36:00;100583.78;;;20.39;33.36
68399;BME280;56258;52.196;13.868;2023-02-03T12:38:37;100584.59;;;20.40;33.26
68399;BME280;56258;52.196;13.868;2023-02-03T12:41:19;100576.53;;;20.25;33.46
68399;BME280;56258;52.196;13.868;2023-02-03T12:43:51;100581.75;;;20.12;33.21
68399;BME280;56258;52.196;13.868;2023-02-03T12:46:23;100586.91;;;20.07;33.68
68399;BME280;56258;52.196;13.868;2023-02-03T12:49:22;100587.72;;;20.07;33.68
68399;BME280;56258;52.196;13.868;2023-02-03T12:57:33;100571.41;;;20.30;33.52
68399;BME280;56258;52.196;13.868;2023-02-03T13:00:18;100567.28;;;20.71;33.18
68399;BME280;56258;52.196;13.868;2023-02-03T13:02:58;100569.03;;;21.00;32.91
68399;BME280;56258;52.196;13.868;2023-02-03T13:05:38;100548.78;;;20.89;32.85
68399;BME280;56258;52.196;13.868;2023-02-03T13:08:24;100554.63;;;20.92;32.39
68399;BME280;56258;52.196;13.868;2023-02-03T13:13:57;100552.19;;;20.55;33.30
68399;BME280;56258;52.196;13.868;2023-02-03T13:16:32;100547.81;;;20.54;33.15
68399;BME280;56258;52.196;13.868;2023-02-03T13:19:12;100546.06;;;20.46;32.99
68399;BME280;56258;52.196;13.868;2023-02-03T13:21:42;100558.94;;;20.29;33.51
68399;BME280;56258;52.196;13.868;2023-02-03T13:24:10;100558.41;;;20.19;33.67
68399;BME280;56258;52.196;13.868;2023-02-03T13:32:38;100634.44;;;20.08;33.74
68399;BME280;56258;52.196;13.868;2023-02-03T13:38:20;100711.28;;;19.97;34.02
68399;BME280;56258;52.196;13.868;2023-02-03T13:41:01;100663.69;;;20.04;34.19
68399;BME280;56258;52.196;13.868;2023-02-03T13:43:39;100687.41;;;20.09;33.96
68399;BME280;56258;52.196;13.868;2023-02-03T13:46:26;100710.38;;;20.20;33.75
68399;BME280;56258;52.196;13.868;2023-02-03T13:48:57;100706.22;;;20.17;34.10
68399;BME280;56258;52.196;13.868;2023-02-03T13:51:29;100725.28;;;20.16;34.09
68399;BME280;56258;52.196;13.868;2023-02-03T13:54:06;100729.28;;;20.20;33.53
68399;BME280;56258;52.196;13.868;2023-02-03T13:56:34;100725.75;;;20.19;33.92
68399;BME280;56258;52.196;13.868;2023-02-03T14:01:33;100694.84;;;20.22;34.19
68399;BME280;56258;52.196;13.868;2023-02-03T14:04:03;100681.44;;;20.28;33.45
68399;BME280;56258;52.196;13.868;2023-02-03T14:09:20;100675.19;;;20.57;33.38
68399;BME280;56258;52.196;13.868;2023-02-03T14:11:51;100684.72;;;20.89;33.22
68399;BME280;56258;52.196;13.868;2023-02-03T14:17:52;100681.22;;;21.10;32.86
68399;BME280;56258;52.196;13.868;2023-02-03T14:19:54;100673.13;;;21.32;32.45
68399;BME280;56258;52.196;13.868;2023-02-03T14:22:21;100684.84;;;21.39;32.57
68399;BME280;56258;52.196;13.868;2023-02-03T14:24:48;100669.22;;;21.34;32.40
68399;BME280;56258;52.196;13.868;2023-02-03T14:27:33;100682.22;;;21.45;32.15
68399;BME280;56258;52.196;13.868;2023-02-03T14:30:08;100680.91;;;21.41;31.99
68399;BME280;56258;52.196;13.868;2023-02-03T14:32:54;100682.22;;;21.45;32.15